Time,TemperatureF,DewpointF,PressureIn,WindDirection,WindDirectionDegrees,WindSpeedMPH,WindSpeedGustMPH,Humidity,HourlyPrecipIn,Conditions,Clouds,dailyrainin,SoftwareType,DateUTC
2013-02-25 00:04:00,66.0,65.0,29.59,ESE,117,7.0,10.0,96,0.00,,,0.00,weatherlink.com 1.10,2013-02-25 06:04:00,
2013-02-25 00:19:00,65.8,65.0,29.58,SE,136,8.0,10.0,96,0.00,,,0.00,weatherlink.com 1.10,2013-02-25 06:19:00,
2013-02-25 00:34:00,65.9,65.0,29.59,ESE,115,7.0,9.0,96,0.00,,,0.00,weatherlink.com 1.10,2013-02-25 06:34:00,
2013-02-25 00:49:00,65.2,64.0,29.58,ESE,122,9.0,11.0,96,0.00,,,0.00,weatherlink.com 1.10,2013-02-25 06:49:00,
2013-02-25 01:04:00,64.7,64.0,29.58,SE,143,7.0,14.0,96,0.00,,,0.00,weatherlink.com 1.10,2013-02-25 07:04:00,
2013-02-25 01:19:00,64.3,63.0,29.58,SE,145,7.0,10.0,96,0.00,,,0.00,weatherlink.com 1.10,2013-02-25 07:19:00,
2013-02-25 01:49:00,63.9,63.0,29.56,SE,129,5.0,10.0,96,0.00,,,0.00,weatherlink.com 1.10,2013-02-25 07:49:00,
2013-02-25 02:04:00,63.8,63.0,29.55,SE,141,8.0,10.0,96,0.00,,,0.00,weatherlink.com 1.10,2013-02-25 08:04:00,
2013-02-25 02:19:00,64.2,63.0,29.55,SSE,150,8.0,10.0,96,0.00,,,0.00,weatherlink.com 1.10,2013-02-25 08:19:00,
2013-02-25 02:34:00,64.5,63.0,29.55,SE,142,7.0,10.0,96,0.00,,,0.00,weatherlink.com 1.10,2013-02-25 08:34:00,
2013-02-25 02:49:00,64.6,64.0,29.54,SSE,157,7.0,10.0,96,0.00,,,0.00,weatherlink.com 1.10,2013-02-25 08:49:00,
2013-02-25 03:04:00,64.6,64.0,29.54,SSE,147,6.0,11.0,96,0.00,,,0.00,weatherlink.com 1.10,2013-02-25 09:04:00,
2013-02-25 03:19:00,64.7,64.0,29.54,South,183,9.0,14.0,97,0.00,,,0.00,weatherlink.com 1.10,2013-02-25 09:19:00,
2013-02-25 03:34:00,65.2,64.0,29.53,SSE,168,9.0,15.0,97,0.00,,,0.00,weatherlink.com 1.10,2013-02-25 09:34:00,
2013-02-25 03:49:00,65.7,65.0,29.52,South,169,12.0,16.0,97,0.00,,,0.00,weatherlink.com 1.10,2013-02-25 09:49:00,
2013-02-25 04:04:00,65.8,65.0,29.52,South,183,10.0,16.0,97,0.00,,,0.00,weatherlink.com 1.10,2013-02-25 10:04:00,
2013-02-25 04:19:00,65.9,65.0,29.52,SSW,200,11.0,15.0,97,0.00,,,0.00,weatherlink.com 1.10,2013-02-25 10:19:00,
2013-02-25 04:34:00,65.6,65.0,29.52,SSE,161,8.0,15.0,97,0.00,,,0.00,weatherlink.com 1.10,2013-02-25 10:34:00,
2013-02-25 04:49:00,65.2,64.0,29.51,South,190,10.0,15.0,97,0.00,,,0.00,weatherlink.com 1.10,2013-02-25 10:49:00,
2013-02-25 05:04:00,65.1,64.0,29.52,South,188,8.0,11.0,97,0.00,,,0.00,weatherlink.com 1.10,2013-02-25 11:04:00,
2013-02-25 05:19:00,65.2,64.0,29.51,SSE,160,6.0,12.0,97,0.00,,,0.00,weatherlink.com 1.10,2013-02-25 11:19:00,
2013-02-25 05:34:00,65.1,64.0,29.52,South,176,9.0,11.0,97,0.00,,,0.00,weatherlink.com 1.10,2013-02-25 11:34:00,
2013-02-25 05:49:00,65.0,64.0,29.53,South,181,6.0,8.0,97,0.00,,,0.00,weatherlink.com 1.10,2013-02-25 11:49:00,
2013-02-25 06:04:00,64.8,64.0,29.52,South,177,7.0,11.0,97,0.00,,,0.00,weatherlink.com 1.10,2013-02-25 12:04:00,
2013-02-25 06:19:00,65.1,64.0,29.53,SSE,167,8.0,10.0,97,0.00,,,0.00,weatherlink.com 1.10,2013-02-25 12:19:00,
2013-02-25 06:34:00,65.2,64.0,29.53,South,191,6.0,10.0,97,0.00,,,0.00,weatherlink.com 1.10,2013-02-25 12:34:00,
2013-02-25 07:04:00,65.2,64.0,29.55,SSW,202,4.0,7.0,97,0.00,,,0.00,weatherlink.com 1.10,2013-02-25 13:04:00,
2013-02-25 07:19:00,65.3,65.0,29.58,WNW,284,7.0,10.0,97,0.00,,,0.00,weatherlink.com 1.10,2013-02-25 13:19:00,
2013-02-25 07:34:00,65.6,65.0,29.60,West,269,7.0,10.0,97,0.00,,,0.00,weatherlink.com 1.10,2013-02-25 13:34:00,
2013-02-25 07:49:00,65.9,65.0,29.60,WNW,291,3.0,7.0,97,0.00,,,0.00,weatherlink.com 1.10,2013-02-25 13:49:00,
2013-02-25 08:04:00,66.3,66.0,29.61,WNW,292,6.0,7.0,97,0.00,,,0.00,weatherlink.com 1.10,2013-02-25 14:04:00,
2013-02-25 08:19:00,67.0,66.0,29.61,WNW,298,6.0,11.0,97,0.00,,,0.00,weatherlink.com 1.10,2013-02-25 14:19:00,
2013-02-25 08:34:00,67.5,67.0,29.62,West,277,6.0,12.0,97,0.00,,,0.00,weatherlink.com 1.10,2013-02-25 14:34:00,
2013-02-25 08:49:00,67.8,67.0,29.62,West,279,7.0,14.0,97,0.00,,,0.00,weatherlink.com 1.10,2013-02-25 14:49:00,
2013-02-25 09:04:00,68.1,66.0,29.63,WNW,284,11.0,23.0,93,0.00,,,0.00,weatherlink.com 1.10,2013-02-25 15:04:00,
2013-02-25 09:20:00,68.2,65.0,29.64,WNW,293,13.0,29.0,89,0.00,,,0.00,weatherlink.com 1.10,2013-02-25 15:20:00,
2013-02-25 09:35:00,65.8,52.0,29.66,NW,306,31.0,31.0,62,0.00,,,0.00,weatherlink.com 1.10,2013-02-25 15:35:00,
2013-02-25 09:50:00,67.1,41.0,29.67,NNW,343,23.0,31.0,38,0.00,,,0.00,weatherlink.com 1.10,2013-02-25 15:50:00,
2013-02-25 10:05:00,67.5,42.0,29.68,NW,307,13.0,26.0,40,0.00,,,0.00,weatherlink.com 1.10,2013-02-25 16:05:00,
2013-02-25 10:20:00,67.9,37.0,29.68,NNW,327,12.0,30.0,32,0.00,,,0.00,weatherlink.com 1.10,2013-02-25 16:20:00,
2013-02-25 10:35:00,68.4,36.0,29.69,NW,317,14.0,27.0,30,0.00,,,0.00,weatherlink.com 1.10,2013-02-25 16:35:00,
2013-02-25 10:50:00,68.8,36.0,29.69,NW,319,12.0,30.0,30,0.00,,,0.00,weatherlink.com 1.10,2013-02-25 16:50:00,
2013-02-25 11:05:00,69.3,35.0,29.70,NNW,338,14.0,28.0,28,0.00,,,0.00,weatherlink.com 1.10,2013-02-25 17:05:00,
2013-02-25 11:20:00,69.5,31.0,29.70,NW,310,20.0,32.0,24,0.00,,,0.00,weatherlink.com 1.10,2013-02-25 17:20:00,
2013-02-25 11:35:00,69.7,30.0,29.70,NW,312,27.0,30.0,23,0.00,,,0.00,weatherlink.com 1.10,2013-02-25 17:35:00,
2013-02-25 11:50:00,70.2,28.0,29.70,WNW,298,19.0,31.0,21,0.00,,,0.00,weatherlink.com 1.10,2013-02-25 17:50:00,
2013-02-25 12:20:00,70.6,24.0,29.70,NW,318,26.0,33.0,17,0.00,,,0.00,weatherlink.com 1.10,2013-02-25 18:20:00,
2013-02-25 12:35:00,70.2,20.0,29.70,West,273,22.0,40.0,15,0.00,,,0.00,weatherlink.com 1.10,2013-02-25 18:35:00,
2013-02-25 12:50:00,70.8,21.0,29.70,WNW,291,23.0,35.0,15,0.00,,,0.00,weatherlink.com 1.10,2013-02-25 18:50:00,
2013-02-25 13:05:00,71.0,21.0,29.69,NW,307,31.0,34.0,15,0.00,,,0.00,weatherlink.com 1.10,2013-02-25 19:05:00,
2013-02-25 13:20:00,70.4,22.0,29.70,WNW,283,20.0,33.0,16,0.00,,,0.00,weatherlink.com 1.10,2013-02-25 19:20:00,
2013-02-25 13:35:00,70.7,24.0,29.69,West,266,28.0,41.0,17,0.00,,,0.00,weatherlink.com 1.10,2013-02-25 19:35:00,
2013-02-25 13:50:00,70.7,17.0,29.66,NNW,348,29.0,43.0,13,0.00,,,0.00,weatherlink.com 1.10,2013-02-25 19:50:00,
2013-02-25 14:05:00,70.3,17.0,29.66,West,279,25.0,47.0,13,0.00,,,0.00,weatherlink.com 1.10,2013-02-25 20:05:00,
2013-02-25 14:20:00,70.8,22.0,29.66,WNW,283,30.0,43.0,16,0.00,,,0.00,weatherlink.com 1.10,2013-02-25 20:20:00,
2013-02-25 14:35:00,70.0,22.0,29.67,WNW,285,15.0,35.0,16,0.00,,,0.00,weatherlink.com 1.10,2013-02-25 20:35:00,
2013-02-25 14:50:00,70.2,23.0,29.67,NNW,331,15.0,41.0,17,0.00,,,0.00,weatherlink.com 1.10,2013-02-25 20:50:00,
2013-02-25 15:05:00,69.3,21.0,29.67,West,264,22.0,37.0,16,0.00,,,0.00,weatherlink.com 1.10,2013-02-25 21:05:00,
2013-02-25 15:20:00,69.1,25.0,29.68,WNW,284,21.0,36.0,19,0.00,,,0.00,weatherlink.com 1.10,2013-02-25 21:20:00,
2013-02-25 15:35:00,68.5,28.0,29.68,NW,308,18.0,37.0,22,0.00,,,0.00,weatherlink.com 1.10,2013-02-25 21:35:00,
2013-02-25 15:50:00,67.6,28.0,29.69,West,275,27.0,39.0,23,0.00,,,0.00,weatherlink.com 1.10,2013-02-25 21:50:00,
2013-02-25 16:05:00,67.7,27.0,29.69,WNW,283,20.0,38.0,22,0.00,,,0.00,weatherlink.com 1.10,2013-02-25 22:05:00,
2013-02-25 16:20:00,67.7,30.0,29.69,WNW,301,31.0,40.0,24,0.00,,,0.00,weatherlink.com 1.10,2013-02-25 22:20:00,
2013-02-25 16:35:00,66.9,24.0,29.70,West,280,20.0,43.0,20,0.01,,,0.01,weatherlink.com 1.10,2013-02-25 22:35:00,
2013-02-25 16:50:00,66.2,26.0,29.71,WNW,283,32.0,47.0,22,0.01,,,0.01,weatherlink.com 1.10,2013-02-25 22:50:00,
2013-02-25 17:05:00,65.4,27.0,29.71,NW,304,36.0,45.0,23,0.01,,,0.01,weatherlink.com 1.10,2013-02-25 23:05:00,
2013-02-25 17:20:00,65.3,28.0,29.70,NW,317,19.0,39.0,25,0.01,,,0.01,weatherlink.com 1.10,2013-02-25 23:20:00,
2013-02-25 17:35:00,64.8,25.0,29.71,NW,321,20.0,43.0,22,0.00,,,0.01,weatherlink.com 1.10,2013-02-25 23:35:00,
2013-02-25 17:50:00,64.6,28.0,29.72,West,281,16.0,45.0,25,0.00,,,0.01,weatherlink.com 1.10,2013-02-25 23:50:00,
2013-02-25 18:05:00,64.3,28.0,29.73,WNW,293,22.0,39.0,25,0.00,,,0.01,weatherlink.com 1.10,2013-02-26 00:05:00,
2013-02-25 18:20:00,64.3,27.0,29.73,WNW,289,25.0,41.0,24,0.00,,,0.01,weatherlink.com 1.10,2013-02-26 00:20:00,
2013-02-25 18:35:00,64.0,26.0,29.74,NW,320,22.0,33.0,24,0.00,,,0.01,weatherlink.com 1.10,2013-02-26 00:35:00,
2013-02-25 18:50:00,63.8,27.0,29.75,NNW,330,20.0,30.0,25,0.00,,,0.01,weatherlink.com 1.10,2013-02-26 00:50:00,
2013-02-25 19:05:00,63.5,26.0,29.76,WNW,285,24.0,31.0,24,0.00,,,0.01,weatherlink.com 1.10,2013-02-26 01:05:00,
2013-02-25 19:20:00,63.2,28.0,29.77,WNW,283,19.0,29.0,26,0.00,,,0.01,weatherlink.com 1.10,2013-02-26 01:20:00,
2013-02-25 19:35:00,63.2,28.0,29.77,NW,310,21.0,32.0,26,0.00,,,0.01,weatherlink.com 1.10,2013-02-26 01:35:00,
2013-02-25 19:50:00,63.2,26.0,29.77,WNW,289,29.0,31.0,24,0.00,,,0.01,weatherlink.com 1.10,2013-02-26 01:50:00,
2013-02-25 20:06:00,63.1,27.0,29.79,WNW,287,18.0,30.0,25,0.00,,,0.01,weatherlink.com 1.10,2013-02-26 02:06:00,
2013-02-25 20:21:00,62.8,28.0,29.79,NW,306,14.0,29.0,27,0.00,,,0.01,weatherlink.com 1.10,2013-02-26 02:21:00,
2013-02-25 20:36:00,62.7,28.0,29.80,NW,319,16.0,35.0,27,0.00,,,0.01,weatherlink.com 1.10,2013-02-26 02:36:00,
2013-02-25 20:51:00,62.6,28.0,29.80,WNW,302,22.0,40.0,27,0.00,,,0.01,weatherlink.com 1.10,2013-02-26 02:51:00,
2013-02-25 21:06:00,62.1,28.0,29.81,NW,314,10.0,31.0,28,0.00,,,0.01,weatherlink.com 1.10,2013-02-26 03:06:00,
2013-02-25 21:21:00,61.8,29.0,29.81,WNW,293,18.0,32.0,29,0.00,,,0.01,weatherlink.com 1.10,2013-02-26 03:21:00,
2013-02-25 21:36:00,61.2,29.0,29.82,NW,314,22.0,30.0,29,0.00,,,0.01,weatherlink.com 1.10,2013-02-26 03:36:00,
2013-02-25 21:51:00,61.0,27.0,29.81,NW,319,22.0,33.0,28,0.00,,,0.01,weatherlink.com 1.10,2013-02-26 03:51:00,
2013-02-25 22:06:00,60.6,28.0,29.82,NNW,343,20.0,28.0,29,0.00,,,0.01,weatherlink.com 1.10,2013-02-26 04:06:00,
2013-02-25 22:21:00,60.5,29.0,29.83,NW,319,15.0,30.0,30,0.00,,,0.01,weatherlink.com 1.10,2013-02-26 04:21:00,
2013-02-25 22:36:00,59.9,31.0,29.84,NNW,330,13.0,27.0,34,0.00,,,0.01,weatherlink.com 1.10,2013-02-26 04:36:00,
2013-02-25 22:51:00,59.1,32.0,29.86,NW,305,11.0,20.0,36,0.00,,,0.01,weatherlink.com 1.10,2013-02-26 04:51:00,
2013-02-25 23:06:00,58.4,31.0,29.86,NW,323,12.0,23.0,36,0.00,,,0.01,weatherlink.com 1.10,2013-02-26 05:06:00,
2013-02-25 23:21:00,58.0,31.0,29.86,NW,320,18.0,27.0,36,0.00,,,0.01,weatherlink.com 1.10,2013-02-26 05:21:00,
2013-02-25 23:36:00,57.7,32.0,29.87,NW,307,9.0,24.0,38,0.00,,,0.01,weatherlink.com 1.10,2013-02-26 05:36:00,
2013-02-25 23:51:00,57.1,33.0,29.87,NNW,343,14.0,16.0,40,0.00,,,0.01,weatherlink.com 1.10,2013-02-26 05:51:00,